PWSweather.com
Personal Weather Stations
Station Observations
WXGLH1124
Southern Oaks, Indianapolis, IN 46217

Southern OaksIndianapolis, IN 46217

Lat: 39.65113, Lon: -86.16866

Elevation: 720

Station Type: Vantage Pro2

High Low Average
Temperature 37.0°F2.8°C 24.9°F-3.9°C 30.2°F-1.0°C
Dew Point 28.1°F-2.2°C 15.7°F-9.1°C 20.6°F-6.3°C
Winds 8.0 mph 12.9 kmh Calm Calm 1.0 mph SW1.6 kmh SW
Wind Gusts 8.0 mph12.9 kmh -- 2.0 mph3.2 kmh
Humidity 88% 50% 68%
Pressure 30.45 in1031.2 mb 30.31 in1026.4 mb -
Precipitation 0.00 in0.0 mm - -
Hour Temp Dew Point Humidity Winds Wind Gusts Pressure Precip Precip Rate Daily Precip Total
12:00 AM 27.2°F-2.7°C 15.9°F-8.9°C 62% 3.0 mph SW4.8 kmh SW 13.0 mph20.9 kmh 30.37 in1028.4 mb 0.00 in0.0 mm 0.00 in0.0 mm 0.00 in0.0 mm
12:05 AM 27.2°F-2.7°C 15.9°F-8.9°C 62% 3.0 mph WSW4.8 kmh WSW 5.0 mph8.0 kmh 30.37 in1028.4 mb 0.00 in0.0 mm 0.00 in0.0 mm 0.00 in0.0 mm
12:10 AM 27.1°F-2.7°C 16.2°F-8.8°C 63% 2.0 mph SW3.2 kmh SW 7.0 mph11.3 kmh 30.37 in1028.4 mb 0.00 in0.0 mm 0.00 in0.0 mm 0.00 in0.0 mm
12:15 AM 27.0°F-2.8°C 16.1°F-8.8°C 63% 1.0 mph WSW1.6 kmh WSW 6.0 mph9.7 kmh 30.37 in1028.4 mb 0.00 in0.0 mm 0.00 in0.0 mm 0.00 in0.0 mm
12:19 AM 27.0°F-2.8°C 16.1°F-8.8°C 63% 3.0 mph WSW4.8 kmh WSW 7.0 mph11.3 kmh 30.37 in1028.4 mb 0.00 in0.0 mm 0.00 in0.0 mm 0.00 in0.0 mm
12:24 AM 26.9°F-2.8°C 16.0°F-8.9°C 63% 1.0 mph SW1.6 kmh SW 7.0 mph11.3 kmh 30.37 in1028.4 mb 0.00 in0.0 mm 0.00 in0.0 mm 0.00 in0.0 mm
12:30 AM 26.8°F-2.9°C 15.9°F-8.9°C 63% 4.0 mph WSW6.4 kmh WSW 8.0 mph12.9 kmh 30.37 in1028.4 mb 0.00 in0.0 mm 0.00 in0.0 mm 0.00 in0.0 mm
12:35 AM 26.8°F-2.9°C 15.9°F-8.9°C 63% 4.0 mph WSW6.4 kmh WSW 6.0 mph9.7 kmh 30.37 in1028.4 mb 0.00 in0.0 mm 0.00 in0.0 mm 0.00 in0.0 mm
12:40 AM 26.7°F-2.9°C 16.2°F-8.8°C 64% 3.0 mph WSW4.8 kmh WSW 7.0 mph11.3 kmh 30.38 in1028.8 mb 0.00 in0.0 mm 0.00 in0.0 mm 0.00 in0.0 mm
12:45 AM 26.6°F-3.0°C 16.1°F-8.8°C 64% 2.0 mph SW3.2 kmh SW 7.0 mph11.3 kmh 30.38 in1028.8 mb 0.00 in0.0 mm 0.00 in0.0 mm 0.00 in0.0 mm
12:50 AM 26.6°F-3.0°C 16.1°F-8.8°C 64% 3.0 mph W4.8 kmh W 6.0 mph9.7 kmh 30.38 in1028.8 mb 0.00 in0.0 mm 0.00 in0.0 mm 0.00 in0.0 mm
12:55 AM 26.6°F-3.0°C 16.1°F-8.8°C 64% Calm Calm 9.0 mph14.5 kmh 30.37 in1028.4 mb 0.00 in0.0 mm 0.00 in0.0 mm 0.00 in0.0 mm
01:00 AM 26.6°F-3.0°C 16.1°F-8.8°C 64% 2.0 mph SW3.2 kmh SW 6.0 mph9.7 kmh 30.37 in1028.4 mb 0.00 in0.0 mm 0.00 in0.0 mm 0.00 in0.0 mm
01:05 AM 26.5°F-3.1°C 16.0°F-8.9°C 64% 2.0 mph WSW3.2 kmh WSW 3.0 mph4.8 kmh 30.37 in1028.4 mb 0.00 in0.0 mm 0.00 in0.0 mm 0.00 in0.0 mm
01:10 AM 26.4°F-3.1°C 15.9°F-8.9°C 64% 2.0 mph SW3.2 kmh SW 4.0 mph6.4 kmh 30.36 in1028.1 mb 0.00 in0.0 mm 0.00 in0.0 mm 0.00 in0.0 mm
01:15 AM 26.3°F-3.2°C 15.8°F-9.0°C 64% Calm Calm 2.0 mph3.2 kmh 30.36 in1028.1 mb 0.00 in0.0 mm 0.00 in0.0 mm 0.00 in0.0 mm
01:20 AM 26.2°F-3.2°C 16.1°F-8.8°C 65% 1.0 mph SW1.6 kmh SW 4.0 mph6.4 kmh 30.36 in1028.1 mb 0.00 in0.0 mm 0.00 in0.0 mm 0.00 in0.0 mm
01:25 AM 26.2°F-3.2°C 16.1°F-8.8°C 65% 4.0 mph WSW6.4 kmh WSW 4.0 mph6.4 kmh 30.36 in1028.1 mb 0.00 in0.0 mm 0.00 in0.0 mm 0.00 in0.0 mm
01:30 AM 26.3°F-3.2°C 15.8°F-9.0°C 64% 2.0 mph SW3.2 kmh SW 3.0 mph4.8 kmh 30.36 in1028.1 mb 0.00 in0.0 mm 0.00 in0.0 mm 0.00 in0.0 mm
01:35 AM 26.2°F-3.2°C 16.1°F-8.8°C 65% 1.0 mph W1.6 kmh W 8.0 mph12.9 kmh 30.36 in1028.1 mb 0.00 in0.0 mm 0.00 in0.0 mm 0.00 in0.0 mm
01:40 AM 26.1°F-3.3°C 16.0°F-8.9°C 65% 1.0 mph SW1.6 kmh SW 4.0 mph6.4 kmh 30.36 in1028.1 mb 0.00 in0.0 mm 0.00 in0.0 mm 0.00 in0.0 mm
01:45 AM 26.1°F-3.3°C 16.0°F-8.9°C 65% 2.0 mph SW3.2 kmh SW 5.0 mph8.0 kmh 30.36 in1028.1 mb 0.00 in0.0 mm 0.00 in0.0 mm 0.00 in0.0 mm
01:50 AM 26.0°F-3.3°C 15.9°F-8.9°C 65% 3.0 mph WSW4.8 kmh WSW 5.0 mph8.0 kmh 30.36 in1028.1 mb 0.00 in0.0 mm 0.00 in0.0 mm 0.00 in0.0 mm
01:54 AM 26.0°F-3.3°C 15.9°F-8.9°C 65% 8.0 mph SW12.9 kmh SW 8.0 mph12.9 kmh 30.36 in1028.1 mb 0.00 in0.0 mm 0.00 in0.0 mm 0.00 in0.0 mm
02:00 AM 26.0°F-3.3°C 15.9°F-8.9°C 65% 6.0 mph SW9.7 kmh SW 6.0 mph9.7 kmh 30.37 in1028.4 mb 0.00 in0.0 mm 0.00 in0.0 mm 0.00 in0.0 mm
02:05 AM 26.1°F-3.3°C 16.0°F-8.9°C 65% 5.0 mph SW8.0 kmh SW 8.0 mph12.9 kmh 30.37 in1028.4 mb 0.00 in0.0 mm 0.00 in0.0 mm 0.00 in0.0 mm
02:10 AM 26.0°F-3.3°C 15.9°F-8.9°C 65% 3.0 mph WSW4.8 kmh WSW 7.0 mph11.3 kmh 30.37 in1028.4 mb 0.00 in0.0 mm 0.00 in0.0 mm 0.00 in0.0 mm
02:15 AM 26.0°F-3.3°C 15.9°F-8.9°C 65% 3.0 mph SW4.8 kmh SW 5.0 mph8.0 kmh 30.37 in1028.4 mb 0.00 in0.0 mm 0.00 in0.0 mm 0.00 in0.0 mm
02:20 AM 25.9°F-3.4°C 15.8°F-9.0°C 65% 4.0 mph SW6.4 kmh SW 6.0 mph9.7 kmh 30.37 in1028.4 mb 0.00 in0.0 mm 0.00 in0.0 mm 0.00 in0.0 mm
02:25 AM 26.1°F-3.3°C 16.0°F-8.9°C 65% 3.0 mph WSW4.8 kmh WSW 8.0 mph12.9 kmh 30.37 in1028.4 mb 0.00 in0.0 mm 0.00 in0.0 mm 0.00 in0.0 mm
02:30 AM 26.1°F-3.3°C 16.0°F-8.9°C 65% 3.0 mph SW4.8 kmh SW 5.0 mph8.0 kmh 30.37 in1028.4 mb 0.00 in0.0 mm 0.00 in0.0 mm 0.00 in0.0 mm
02:35 AM 26.0°F-3.3°C 15.9°F-8.9°C 65% 2.0 mph SW3.2 kmh SW 7.0 mph11.3 kmh 30.37 in1028.4 mb 0.00 in0.0 mm 0.00 in0.0 mm 0.00 in0.0 mm
02:39 AM 26.0°F-3.3°C 15.9°F-8.9°C 65% 2.0 mph SW3.2 kmh SW 7.0 mph11.3 kmh 30.38 in1028.8 mb 0.00 in0.0 mm 0.00 in0.0 mm 0.00 in0.0 mm
02:45 AM 25.9°F-3.4°C 15.8°F-9.0°C 65% Calm Calm 6.0 mph9.7 kmh 30.37 in1028.4 mb 0.00 in0.0 mm 0.00 in0.0 mm 0.00 in0.0 mm
02:50 AM 25.8°F-3.4°C 15.7°F-9.1°C 65% 3.0 mph SW4.8 kmh SW 6.0 mph9.7 kmh 30.37 in1028.4 mb 0.00 in0.0 mm 0.00 in0.0 mm 0.00 in0.0 mm
02:55 AM 25.7°F-3.5°C 15.9°F-8.9°C 66% 5.0 mph SW8.0 kmh SW 7.0 mph11.3 kmh 30.37 in1028.4 mb 0.00 in0.0 mm 0.00 in0.0 mm 0.00 in0.0 mm
03:00 AM 25.7°F-3.5°C 15.9°F-8.9°C 66% 1.0 mph SW1.6 kmh SW 7.0 mph11.3 kmh 30.37 in1028.4 mb 0.00 in0.0 mm 0.00 in0.0 mm 0.00 in0.0 mm
03:05 AM 25.7°F-3.5°C 15.9°F-8.9°C 66% 3.0 mph WSW4.8 kmh WSW 6.0 mph9.7 kmh 30.37 in1028.4 mb 0.00 in0.0 mm 0.00 in0.0 mm 0.00 in0.0 mm
03:10 AM 25.6°F-3.6°C 15.8°F-9.0°C 66% 4.0 mph SW6.4 kmh SW 6.0 mph9.7 kmh 30.37 in1028.4 mb 0.00 in0.0 mm 0.00 in0.0 mm 0.00 in0.0 mm
03:15 AM 25.6°F-3.6°C 15.8°F-9.0°C 66% 1.0 mph SW1.6 kmh SW 4.0 mph6.4 kmh 30.37 in1028.4 mb 0.00 in0.0 mm 0.00 in0.0 mm 0.00 in0.0 mm
03:19 AM 25.6°F-3.6°C 15.8°F-9.0°C 66% 2.0 mph W3.2 kmh W 3.0 mph4.8 kmh 30.37 in1028.4 mb 0.00 in0.0 mm 0.00 in0.0 mm 0.00 in0.0 mm
03:25 AM 25.5°F-3.6°C 15.7°F-9.1°C 66% 1.0 mph W1.6 kmh W 2.0 mph3.2 kmh 30.37 in1028.4 mb 0.00 in0.0 mm 0.00 in0.0 mm 0.00 in0.0 mm
03:30 AM 25.5°F-3.6°C 16.1°F-8.8°C 67% Calm Calm 3.0 mph4.8 kmh 30.37 in1028.4 mb 0.00 in0.0 mm 0.00 in0.0 mm 0.00 in0.0 mm
03:35 AM 25.5°F-3.6°C 16.1°F-8.8°C 67% 3.0 mph W4.8 kmh W 4.0 mph6.4 kmh 30.37 in1028.4 mb 0.00 in0.0 mm 0.00 in0.0 mm 0.00 in0.0 mm
03:40 AM 25.5°F-3.6°C 16.1°F-8.8°C 67% 5.0 mph WSW8.0 kmh WSW 5.0 mph8.0 kmh 30.37 in1028.4 mb 0.00 in0.0 mm 0.00 in0.0 mm 0.00 in0.0 mm
03:45 AM 25.6°F-3.6°C 15.8°F-9.0°C 66% 1.0 mph SW1.6 kmh SW 4.0 mph6.4 kmh 30.37 in1028.4 mb 0.00 in0.0 mm 0.00 in0.0 mm 0.00 in0.0 mm
03:50 AM 25.6°F-3.6°C 16.2°F-8.8°C 67% Calm Calm 3.0 mph4.8 kmh 30.38 in1028.8 mb 0.00 in0.0 mm 0.00 in0.0 mm 0.00 in0.0 mm
03:54 AM 25.7°F-3.5°C 16.3°F-8.7°C 67% 2.0 mph WSW3.2 kmh WSW 3.0 mph4.8 kmh 30.38 in1028.8 mb 0.00 in0.0 mm 0.00 in0.0 mm 0.00 in0.0 mm
04:00 AM 25.7°F-3.5°C 16.3°F-8.7°C 67% 2.0 mph WSW3.2 kmh WSW 3.0 mph4.8 kmh 30.37 in1028.4 mb 0.00 in0.0 mm 0.00 in0.0 mm 0.00 in0.0 mm
04:05 AM 25.7°F-3.5°C 15.9°F-8.9°C 66% 1.0 mph W1.6 kmh W 3.0 mph4.8 kmh 30.37 in1028.4 mb 0.00 in0.0 mm 0.00 in0.0 mm 0.00 in0.0 mm
04:10 AM 25.7°F-3.5°C 16.3°F-8.7°C 67% 1.0 mph W1.6 kmh W 2.0 mph3.2 kmh 30.37 in1028.4 mb 0.00 in0.0 mm 0.00 in0.0 mm 0.00 in0.0 mm
04:15 AM 25.7°F-3.5°C 15.9°F-8.9°C 66% 2.0 mph W3.2 kmh W 2.0 mph3.2 kmh 30.37 in1028.4 mb 0.00 in0.0 mm 0.00 in0.0 mm 0.00 in0.0 mm
04:20 AM 25.6°F-3.6°C 16.2°F-8.8°C 67% 1.0 mph W1.6 kmh W 3.0 mph4.8 kmh 30.37 in1028.4 mb 0.00 in0.0 mm 0.00 in0.0 mm 0.00 in0.0 mm
04:25 AM 25.4°F-3.7°C 16.0°F-8.9°C 67% Calm Calm 1.0 mph1.6 kmh 30.38 in1028.8 mb 0.00 in0.0 mm 0.00 in0.0 mm 0.00 in0.0 mm
04:30 AM 25.2°F-3.8°C 16.1°F-8.8°C 68% Calm Calm 3.0 mph4.8 kmh 30.38 in1028.8 mb 0.00 in0.0 mm 0.00 in0.0 mm 0.00 in0.0 mm
04:35 AM 25.1°F-3.8°C 16.0°F-8.9°C 68% 2.0 mph W3.2 kmh W 2.0 mph3.2 kmh 30.38 in1028.8 mb 0.00 in0.0 mm 0.00 in0.0 mm 0.00 in0.0 mm
04:40 AM 25.1°F-3.8°C 16.0°F-8.9°C 68% Calm Calm 4.0 mph6.4 kmh 30.38 in1028.8 mb 0.00 in0.0 mm 0.00 in0.0 mm 0.00 in0.0 mm
04:45 AM 25.1°F-3.8°C 16.0°F-8.9°C 68% Calm Calm 2.0 mph3.2 kmh 30.38 in1028.8 mb 0.00 in0.0 mm 0.00 in0.0 mm 0.00 in0.0 mm
04:50 AM 25.1°F-3.8°C 16.0°F-8.9°C 68% Calm Calm 1.0 mph1.6 kmh 30.39 in1029.1 mb 0.00 in0.0 mm 0.00 in0.0 mm 0.00 in0.0 mm
04:55 AM 25.0°F-3.9°C 16.3°F-8.7°C 69% 1.0 mph WSW1.6 kmh WSW 2.0 mph3.2 kmh 30.39 in1029.1 mb 0.00 in0.0 mm 0.00 in0.0 mm 0.00 in0.0 mm
05:00 AM 24.9°F-3.9°C 16.2°F-8.8°C 69% Calm Calm 2.0 mph3.2 kmh 30.38 in1028.8 mb 0.00 in0.0 mm 0.00 in0.0 mm 0.00 in0.0 mm
05:05 AM 24.9°F-3.9°C 16.2°F-8.8°C 69% Calm Calm 2.0 mph3.2 kmh 30.39 in1029.1 mb 0.00 in0.0 mm 0.00 in0.0 mm 0.00 in0.0 mm
05:10 AM 24.9°F-3.9°C 16.2°F-8.8°C 69% Calm Calm 1.0 mph1.6 kmh 30.39 in1029.1 mb 0.00 in0.0 mm 0.00 in0.0 mm 0.00 in0.0 mm
05:14 AM 25.2°F-3.8°C 17.1°F-8.3°C 71% 2.0 mph WSW3.2 kmh WSW 4.0 mph6.4 kmh 30.39 in1029.1 mb 0.00 in0.0 mm 0.00 in0.0 mm 0.00 in0.0 mm
05:20 AM 25.4°F-3.7°C 17.7°F-7.9°C 72% Calm Calm 4.0 mph6.4 kmh 30.39 in1029.1 mb 0.00 in0.0 mm 0.00 in0.0 mm 0.00 in0.0 mm
05:25 AM 25.4°F-3.7°C 17.0°F-8.3°C 70% Calm Calm 1.0 mph1.6 kmh 30.39 in1029.1 mb 0.00 in0.0 mm 0.00 in0.0 mm 0.00 in0.0 mm
05:30 AM 25.3°F-3.7°C 16.9°F-8.4°C 70% Calm Calm 3.0 mph4.8 kmh 30.39 in1029.1 mb 0.00 in0.0 mm 0.00 in0.0 mm 0.00 in0.0 mm
05:34 AM 25.4°F-3.7°C 17.0°F-8.3°C 70% 1.0 mph WSW1.6 kmh WSW 3.0 mph4.8 kmh 30.39 in1029.1 mb 0.00 in0.0 mm 0.00 in0.0 mm 0.00 in0.0 mm
05:40 AM 25.4°F-3.7°C 17.0°F-8.3°C 70% Calm Calm 2.0 mph3.2 kmh 30.38 in1028.8 mb 0.00 in0.0 mm 0.00 in0.0 mm 0.00 in0.0 mm
05:45 AM 25.4°F-3.7°C 17.3°F-8.2°C 71% 2.0 mph WSW3.2 kmh WSW 2.0 mph3.2 kmh 30.38 in1028.8 mb 0.00 in0.0 mm 0.00 in0.0 mm 0.00 in0.0 mm
05:50 AM 25.5°F-3.6°C 17.4°F-8.1°C 71% Calm Calm 1.0 mph1.6 kmh 30.39 in1029.1 mb 0.00 in0.0 mm 0.00 in0.0 mm 0.00 in0.0 mm
05:54 AM 25.7°F-3.5°C 17.6°F-8.0°C 71% Calm Calm 4.0 mph6.4 kmh 30.38 in1028.8 mb 0.00 in0.0 mm 0.00 in0.0 mm 0.00 in0.0 mm
05:59 AM 25.7°F-3.5°C 17.3°F-8.2°C 70% 1.0 mph WNW1.6 kmh WNW 4.0 mph6.4 kmh 30.38 in1028.8 mb 0.00 in0.0 mm 0.00 in0.0 mm 0.00 in0.0 mm
06:05 AM 25.9°F-3.4°C 17.1°F-8.3°C 69% 2.0 mph W3.2 kmh W 3.0 mph4.8 kmh 30.39 in1029.1 mb 0.00 in0.0 mm 0.00 in0.0 mm 0.00 in0.0 mm
06:10 AM 26.0°F-3.3°C 17.2°F-8.2°C 69% 1.0 mph W1.6 kmh W 3.0 mph4.8 kmh 30.39 in1029.1 mb 0.00 in0.0 mm 0.00 in0.0 mm 0.00 in0.0 mm
06:15 AM 26.1°F-3.3°C 17.3°F-8.2°C 69% Calm Calm 2.0 mph3.2 kmh 30.39 in1029.1 mb 0.00 in0.0 mm 0.00 in0.0 mm 0.00 in0.0 mm
06:20 AM 26.1°F-3.3°C 17.3°F-8.2°C 69% Calm Calm 3.0 mph4.8 kmh 30.40 in1029.5 mb 0.00 in0.0 mm 0.00 in0.0 mm 0.00 in0.0 mm
06:24 AM 26.2°F-3.2°C 17.4°F-8.1°C 69% 1.0 mph W1.6 kmh W 2.0 mph3.2 kmh 30.40 in1029.5 mb 0.00 in0.0 mm 0.00 in0.0 mm 0.00 in0.0 mm
06:29 AM 26.2°F-3.2°C 17.4°F-8.1°C 69% 2.0 mph W3.2 kmh W 3.0 mph4.8 kmh 30.40 in1029.5 mb 0.00 in0.0 mm 0.00 in0.0 mm 0.00 in0.0 mm
06:35 AM 26.2°F-3.2°C 17.1°F-8.3°C 68% Calm Calm 1.0 mph1.6 kmh 30.39 in1029.1 mb 0.00 in0.0 mm 0.00 in0.0 mm 0.00 in0.0 mm
06:39 AM 26.2°F-3.2°C 17.4°F-8.1°C 69% 2.0 mph W3.2 kmh W 3.0 mph4.8 kmh 30.40 in1029.5 mb 0.00 in0.0 mm 0.00 in0.0 mm 0.00 in0.0 mm
06:45 AM 26.2°F-3.2°C 17.4°F-8.1°C 69% 2.0 mph W3.2 kmh W 2.0 mph3.2 kmh 30.40 in1029.5 mb 0.00 in0.0 mm 0.00 in0.0 mm 0.00 in0.0 mm
06:49 AM 26.2°F-3.2°C 17.4°F-8.1°C 69% 2.0 mph W3.2 kmh W 3.0 mph4.8 kmh 30.40 in1029.5 mb 0.00 in0.0 mm 0.00 in0.0 mm 0.00 in0.0 mm
06:55 AM 26.2°F-3.2°C 17.4°F-8.1°C 69% Calm Calm 1.0 mph1.6 kmh 30.40 in1029.5 mb 0.00 in0.0 mm 0.00 in0.0 mm 0.00 in0.0 mm
07:00 AM 26.2°F-3.2°C 17.8°F-7.9°C 70% Calm Calm 2.0 mph3.2 kmh 30.40 in1029.5 mb 0.00 in0.0 mm 0.00 in0.0 mm 0.00 in0.0 mm
07:05 AM 26.2°F-3.2°C 17.4°F-8.1°C 69% Calm Calm 3.0 mph4.8 kmh 30.40 in1029.5 mb 0.00 in0.0 mm 0.00 in0.0 mm 0.00 in0.0 mm
07:10 AM 26.2°F-3.2°C 17.4°F-8.1°C 69% Calm Calm -- 30.40 in1029.5 mb 0.00 in0.0 mm 0.00 in0.0 mm 0.00 in0.0 mm
07:15 AM 26.2°F-3.2°C 17.4°F-8.1°C 69% Calm Calm -- 30.40 in1029.5 mb 0.00 in0.0 mm 0.00 in0.0 mm 0.00 in0.0 mm
07:20 AM 26.1°F-3.3°C 17.3°F-8.2°C 69% Calm Calm -- 30.41 in1029.8 mb 0.00 in0.0 mm 0.00 in0.0 mm 0.00 in0.0 mm
07:25 AM 26.1°F-3.3°C 17.3°F-8.2°C 69% Calm Calm -- 30.41 in1029.8 mb 0.00 in0.0 mm 0.00 in0.0 mm 0.00 in0.0 mm
07:29 AM 26.1°F-3.3°C 17.7°F-7.9°C 70% Calm Calm -- 30.41 in1029.8 mb 0.00 in0.0 mm 0.00 in0.0 mm 0.00 in0.0 mm
07:35 AM 26.1°F-3.3°C 17.7°F-7.9°C 70% Calm Calm -- 30.41 in1029.8 mb 0.00 in0.0 mm 0.00 in0.0 mm 0.00 in0.0 mm
07:40 AM 26.1°F-3.3°C 17.7°F-7.9°C 70% Calm Calm -- 30.41 in1029.8 mb 0.00 in0.0 mm 0.00 in0.0 mm 0.00 in0.0 mm
07:44 AM 26.0°F-3.3°C 17.6°F-8.0°C 70% Calm Calm -- 30.41 in1029.8 mb 0.00 in0.0 mm 0.00 in0.0 mm 0.00 in0.0 mm
07:50 AM 26.0°F-3.3°C 17.9°F-7.8°C 71% 1.0 mph W1.6 kmh W 1.0 mph1.6 kmh 30.41 in1029.8 mb 0.00 in0.0 mm 0.00 in0.0 mm 0.00 in0.0 mm
07:55 AM 26.0°F-3.3°C 17.9°F-7.8°C 71% Calm Calm -- 30.41 in1029.8 mb 0.00 in0.0 mm 0.00 in0.0 mm 0.00 in0.0 mm
08:00 AM 26.0°F-3.3°C 17.9°F-7.8°C 71% Calm Calm -- 30.41 in1029.8 mb 0.00 in0.0 mm 0.00 in0.0 mm 0.00 in0.0 mm
08:04 AM 26.0°F-3.3°C 17.9°F-7.8°C 71% Calm Calm -- 30.41 in1029.8 mb 0.00 in0.0 mm 0.00 in0.0 mm 0.00 in0.0 mm
08:10 AM 26.0°F-3.3°C 17.9°F-7.8°C 71% Calm Calm -- 30.41 in1029.8 mb 0.00 in0.0 mm 0.00 in0.0 mm 0.00 in0.0 mm
08:15 AM 26.0°F-3.3°C 17.9°F-7.8°C 71% Calm Calm -- 30.41 in1029.8 mb 0.00 in0.0 mm 0.00 in0.0 mm 0.00 in0.0 mm
08:20 AM 26.0°F-3.3°C 17.9°F-7.8°C 71% Calm Calm -- 30.41 in1029.8 mb 0.00 in0.0 mm 0.00 in0.0 mm 0.00 in0.0 mm
08:25 AM 25.9°F-3.4°C 17.8°F-7.9°C 71% Calm Calm -- 30.41 in1029.8 mb 0.00 in0.0 mm 0.00 in0.0 mm 0.00 in0.0 mm
08:30 AM 25.9°F-3.4°C 17.8°F-7.9°C 71% Calm Calm -- 30.41 in1029.8 mb 0.00 in0.0 mm 0.00 in0.0 mm 0.00 in0.0 mm
08:35 AM 25.9°F-3.4°C 17.8°F-7.9°C 71% Calm Calm -- 30.41 in1029.8 mb 0.00 in0.0 mm 0.00 in0.0 mm 0.00 in0.0 mm
08:40 AM 25.9°F-3.4°C 17.8°F-7.9°C 71% Calm Calm -- 30.41 in1029.8 mb 0.00 in0.0 mm 0.00 in0.0 mm 0.00 in0.0 mm
08:45 AM 25.9°F-3.4°C 18.1°F-7.7°C 72% Calm Calm -- 30.41 in1029.8 mb 0.00 in0.0 mm 0.00 in0.0 mm 0.00 in0.0 mm
08:50 AM 26.0°F-3.3°C 18.2°F-7.7°C 72% Calm Calm -- 30.42 in1030.1 mb 0.00 in0.0 mm 0.00 in0.0 mm 0.00 in0.0 mm
08:55 AM 26.0°F-3.3°C 18.2°F-7.7°C 72% Calm Calm -- 30.42 in1030.1 mb 0.00 in0.0 mm 0.00 in0.0 mm 0.00 in0.0 mm
09:00 AM 26.0°F-3.3°C 18.2°F-7.7°C 72% Calm Calm -- 30.42 in1030.1 mb 0.00 in0.0 mm 0.00 in0.0 mm 0.00 in0.0 mm
09:05 AM 26.1°F-3.3°C 18.3°F-7.6°C 72% Calm Calm -- 30.42 in1030.1 mb 0.00 in0.0 mm 0.00 in0.0 mm 0.00 in0.0 mm
09:10 AM 26.2°F-3.2°C 18.4°F-7.6°C 72% Calm Calm -- 30.43 in1030.5 mb 0.00 in0.0 mm 0.00 in0.0 mm 0.00 in0.0 mm
09:15 AM 26.3°F-3.2°C 18.5°F-7.5°C 72% Calm Calm -- 30.43 in1030.5 mb 0.00 in0.0 mm 0.00 in0.0 mm 0.00 in0.0 mm
09:20 AM 26.4°F-3.1°C 18.9°F-7.3°C 73% Calm Calm -- 30.43 in1030.5 mb 0.00 in0.0 mm 0.00 in0.0 mm 0.00 in0.0 mm
09:25 AM 26.5°F-3.1°C 19.0°F-7.2°C 73% Calm Calm -- 30.43 in1030.5 mb 0.00 in0.0 mm 0.00 in0.0 mm 0.00 in0.0 mm
09:30 AM 26.6°F-3.0°C 18.8°F-7.3°C 72% Calm Calm 1.0 mph1.6 kmh 30.44 in1030.8 mb 0.00 in0.0 mm 0.00 in0.0 mm 0.00 in0.0 mm
09:34 AM 26.8°F-2.9°C 19.0°F-7.2°C 72% Calm Calm -- 30.44 in1030.8 mb 0.00 in0.0 mm 0.00 in0.0 mm 0.00 in0.0 mm
09:40 AM 26.9°F-2.8°C 19.1°F-7.2°C 72% Calm Calm 1.0 mph1.6 kmh 30.44 in1030.8 mb 0.00 in0.0 mm 0.00 in0.0 mm 0.00 in0.0 mm
09:45 AM 27.1°F-2.7°C 19.0°F-7.2°C 71% Calm Calm -- 30.43 in1030.5 mb 0.00 in0.0 mm 0.00 in0.0 mm 0.00 in0.0 mm
09:50 AM 27.2°F-2.7°C 19.1°F-7.2°C 71% Calm Calm 1.0 mph1.6 kmh 30.44 in1030.8 mb 0.00 in0.0 mm 0.00 in0.0 mm 0.00 in0.0 mm
09:55 AM 27.3°F-2.6°C 19.2°F-7.1°C 71% Calm Calm -- 30.44 in1030.8 mb 0.00 in0.0 mm 0.00 in0.0 mm 0.00 in0.0 mm
10:00 AM 27.5°F-2.5°C 19.4°F-7.0°C 71% Calm Calm -- 30.44 in1030.8 mb 0.00 in0.0 mm 0.00 in0.0 mm 0.00 in0.0 mm
10:05 AM 27.7°F-2.4°C 19.2°F-7.1°C 70% Calm Calm -- 30.44 in1030.8 mb 0.00 in0.0 mm 0.00 in0.0 mm 0.00 in0.0 mm
10:10 AM 27.8°F-2.3°C 19.3°F-7.1°C 70% 1.0 mph NNW1.6 kmh NNW 3.0 mph4.8 kmh 30.45 in1031.2 mb 0.00 in0.0 mm 0.00 in0.0 mm 0.00 in0.0 mm
10:15 AM 27.9°F-2.3°C 19.1°F-7.2°C 69% Calm Calm -- 30.45 in1031.2 mb 0.00 in0.0 mm 0.00 in0.0 mm 0.00 in0.0 mm
10:19 AM 28.1°F-2.2°C 19.3°F-7.1°C 69% Calm Calm -- 30.45 in1031.2 mb 0.00 in0.0 mm 0.00 in0.0 mm 0.00 in0.0 mm
10:25 AM 28.2°F-2.1°C 19.4°F-7.0°C 69% Calm Calm -- 30.45 in1031.2 mb 0.00 in0.0 mm 0.00 in0.0 mm 0.00 in0.0 mm
10:30 AM 28.2°F-2.1°C 19.0°F-7.2°C 68% Calm Calm -- 30.44 in1030.8 mb 0.00 in0.0 mm 0.00 in0.0 mm 0.00 in0.0 mm
10:35 AM 28.1°F-2.2°C 18.9°F-7.3°C 68% Calm Calm -- 30.43 in1030.5 mb 0.00 in0.0 mm 0.00 in0.0 mm 0.00 in0.0 mm
10:40 AM 28.1°F-2.2°C 18.6°F-7.4°C 67% Calm Calm -- 30.43 in1030.5 mb 0.00 in0.0 mm 0.00 in0.0 mm 0.00 in0.0 mm
10:45 AM 28.0°F-2.2°C 18.5°F-7.5°C 67% Calm Calm -- 30.44 in1030.8 mb 0.00 in0.0 mm 0.00 in0.0 mm 0.00 in0.0 mm
10:49 AM 28.2°F-2.1°C 19.0°F-7.2°C 68% Calm Calm -- 30.44 in1030.8 mb 0.00 in0.0 mm 0.00 in0.0 mm 0.00 in0.0 mm
10:55 AM 28.4°F-2.0°C 18.9°F-7.3°C 67% Calm Calm -- 30.44 in1030.8 mb 0.00 in0.0 mm 0.00 in0.0 mm 0.00 in0.0 mm
11:00 AM 28.5°F-1.9°C 19.0°F-7.2°C 67% Calm Calm -- 30.44 in1030.8 mb 0.00 in0.0 mm 0.00 in0.0 mm 0.00 in0.0 mm
11:05 AM 28.7°F-1.8°C 18.8°F-7.3°C 66% Calm Calm -- 30.44 in1030.8 mb 0.00 in0.0 mm 0.00 in0.0 mm 0.00 in0.0 mm
11:09 AM 28.9°F-1.7°C 19.0°F-7.2°C 66% Calm Calm -- 30.44 in1030.8 mb 0.00 in0.0 mm 0.00 in0.0 mm 0.00 in0.0 mm
11:15 AM 28.9°F-1.7°C 18.6°F-7.4°C 65% 2.0 mph W3.2 kmh W 3.0 mph4.8 kmh 30.44 in1030.8 mb 0.00 in0.0 mm 0.00 in0.0 mm 0.00 in0.0 mm
11:20 AM 28.9°F-1.7°C 18.6°F-7.4°C 65% Calm Calm -- 30.44 in1030.8 mb 0.00 in0.0 mm 0.00 in0.0 mm 0.00 in0.0 mm
11:24 AM 29.2°F-1.6°C 18.9°F-7.3°C 65% Calm Calm 1.0 mph1.6 kmh 30.44 in1030.8 mb 0.00 in0.0 mm 0.00 in0.0 mm 0.00 in0.0 mm
11:30 AM 29.1°F-1.6°C 18.8°F-7.3°C 65% 3.0 mph SW4.8 kmh SW 4.0 mph6.4 kmh 30.44 in1030.8 mb 0.00 in0.0 mm 0.00 in0.0 mm 0.00 in0.0 mm
11:35 AM 28.9°F-1.7°C 18.6°F-7.4°C 65% 2.0 mph SW3.2 kmh SW 3.0 mph4.8 kmh 30.44 in1030.8 mb 0.00 in0.0 mm 0.00 in0.0 mm 0.00 in0.0 mm
11:40 AM 29.0°F-1.7°C 18.7°F-7.4°C 65% Calm Calm 1.0 mph1.6 kmh 30.44 in1030.8 mb 0.00 in0.0 mm 0.00 in0.0 mm 0.00 in0.0 mm
11:45 AM 29.0°F-1.7°C 18.7°F-7.4°C 65% Calm Calm 1.0 mph1.6 kmh 30.44 in1030.8 mb 0.00 in0.0 mm 0.00 in0.0 mm 0.00 in0.0 mm
11:50 AM 29.2°F-1.6°C 18.9°F-7.3°C 65% Calm Calm -- 30.44 in1030.8 mb 0.00 in0.0 mm 0.00 in0.0 mm 0.00 in0.0 mm
11:55 AM 29.5°F-1.4°C 19.2°F-7.1°C 65% Calm Calm 1.0 mph1.6 kmh 30.44 in1030.8 mb 0.00 in0.0 mm 0.00 in0.0 mm 0.00 in0.0 mm
12:00 PM 29.7°F-1.3°C 19.0°F-7.2°C 64% 1.0 mph SW1.6 kmh SW 1.0 mph1.6 kmh 30.44 in1030.8 mb 0.00 in0.0 mm 0.00 in0.0 mm 0.00 in0.0 mm
12:05 PM 29.6°F-1.3°C 18.9°F-7.3°C 64% Calm Calm -- 30.44 in1030.8 mb 0.00 in0.0 mm 0.00 in0.0 mm 0.00 in0.0 mm
12:10 PM 29.9°F-1.2°C 19.6°F-6.9°C 65% Calm Calm -- 30.43 in1030.5 mb 0.00 in0.0 mm 0.00 in0.0 mm 0.00 in0.0 mm
12:15 PM 30.4°F-0.9°C 19.7°F-6.8°C 64% Calm Calm 1.0 mph1.6 kmh 30.43 in1030.5 mb 0.00 in0.0 mm 0.00 in0.0 mm 0.00 in0.0 mm
12:20 PM 30.8°F-0.7°C 19.3°F-7.1°C 62% Calm Calm -- 30.43 in1030.5 mb 0.00 in0.0 mm 0.00 in0.0 mm 0.00 in0.0 mm
12:25 PM 31.0°F-0.6°C 18.8°F-7.3°C 60% 2.0 mph SW3.2 kmh SW 2.0 mph3.2 kmh 30.43 in1030.5 mb 0.00 in0.0 mm 0.00 in0.0 mm 0.00 in0.0 mm
12:30 PM 30.9°F-0.6°C 18.3°F-7.6°C 59% Calm Calm 2.0 mph3.2 kmh 30.43 in1030.5 mb 0.00 in0.0 mm 0.00 in0.0 mm 0.00 in0.0 mm
12:35 PM 31.1°F-0.5°C 18.9°F-7.3°C 60% Calm Calm -- 30.43 in1030.5 mb 0.00 in0.0 mm 0.00 in0.0 mm 0.00 in0.0 mm
12:40 PM 31.6°F-0.2°C 19.3°F-7.1°C 60% Calm Calm 4.0 mph6.4 kmh 30.42 in1030.1 mb 0.00 in0.0 mm 0.00 in0.0 mm 0.00 in0.0 mm
12:45 PM 31.7°F-0.2°C 19.4°F-7.0°C 60% Calm Calm 2.0 mph3.2 kmh 30.43 in1030.5 mb 0.00 in0.0 mm 0.00 in0.0 mm 0.00 in0.0 mm
12:50 PM 32.0°F0.0°C 19.7°F-6.8°C 60% 3.0 mph ENE4.8 kmh ENE 3.0 mph4.8 kmh 30.43 in1030.5 mb 0.00 in0.0 mm 0.00 in0.0 mm 0.00 in0.0 mm
12:55 PM 32.3°F0.2°C 20.0°F-6.7°C 60% Calm Calm 1.0 mph1.6 kmh 30.42 in1030.1 mb 0.00 in0.0 mm 0.00 in0.0 mm 0.00 in0.0 mm
01:00 PM 32.5°F0.3°C 20.2°F-6.6°C 60% 2.0 mph SE3.2 kmh SE 3.0 mph4.8 kmh 30.43 in1030.5 mb 0.00 in0.0 mm 0.00 in0.0 mm 0.00 in0.0 mm
01:05 PM 32.8°F0.4°C 20.1°F-6.6°C 59% Calm Calm 4.0 mph6.4 kmh 30.43 in1030.5 mb 0.00 in0.0 mm 0.00 in0.0 mm 0.00 in0.0 mm
01:10 PM 33.1°F0.6°C 20.4°F-6.4°C 59% Calm Calm -- 30.42 in1030.1 mb 0.00 in0.0 mm 0.00 in0.0 mm 0.00 in0.0 mm
01:15 PM 33.5°F0.8°C 20.3°F-6.5°C 58% Calm Calm 4.0 mph6.4 kmh 30.42 in1030.1 mb 0.00 in0.0 mm 0.00 in0.0 mm 0.00 in0.0 mm
01:19 PM 33.7°F0.9°C 20.5°F-6.4°C 58% Calm Calm 2.0 mph3.2 kmh 30.42 in1030.1 mb 0.00 in0.0 mm 0.00 in0.0 mm 0.00 in0.0 mm
01:25 PM 34.1°F1.2°C 20.5°F-6.4°C 57% Calm Calm 1.0 mph1.6 kmh 30.42 in1030.1 mb 0.00 in0.0 mm 0.00 in0.0 mm 0.00 in0.0 mm
01:30 PM 34.2°F1.2°C 20.6°F-6.3°C 57% Calm Calm 1.0 mph1.6 kmh 30.42 in1030.1 mb 0.00 in0.0 mm 0.00 in0.0 mm 0.00 in0.0 mm
01:35 PM 34.5°F1.4°C 20.4°F-6.4°C 56% Calm Calm 2.0 mph3.2 kmh 30.42 in1030.1 mb 0.00 in0.0 mm 0.00 in0.0 mm 0.00 in0.0 mm
01:40 PM 34.8°F1.6°C 20.7°F-6.3°C 56% 5.0 mph SW8.0 kmh SW 6.0 mph9.7 kmh 30.42 in1030.1 mb 0.00 in0.0 mm 0.00 in0.0 mm 0.00 in0.0 mm
01:45 PM 34.5°F1.4°C 20.0°F-6.7°C 55% Calm Calm 3.0 mph4.8 kmh 30.43 in1030.5 mb 0.00 in0.0 mm 0.00 in0.0 mm 0.00 in0.0 mm
01:50 PM 34.8°F1.6°C 20.3°F-6.5°C 55% 1.0 mph NNE1.6 kmh NNE 3.0 mph4.8 kmh 30.43 in1030.5 mb 0.00 in0.0 mm 0.00 in0.0 mm 0.00 in0.0 mm
01:55 PM 34.8°F1.6°C 19.4°F-7.0°C 53% Calm Calm 3.0 mph4.8 kmh 30.42 in1030.1 mb 0.00 in0.0 mm 0.00 in0.0 mm 0.00 in0.0 mm
02:00 PM 34.7°F1.5°C 19.8°F-6.8°C 54% Calm Calm 5.0 mph8.0 kmh 30.42 in1030.1 mb 0.00 in0.0 mm 0.00 in0.0 mm 0.00 in0.0 mm
02:05 PM 34.4°F1.3°C 19.9°F-6.7°C 55% 3.0 mph SSW4.8 kmh SSW 4.0 mph6.4 kmh 30.42 in1030.1 mb 0.00 in0.0 mm 0.00 in0.0 mm 0.00 in0.0 mm
02:10 PM 34.4°F1.3°C 19.9°F-6.7°C 55% Calm Calm 1.0 mph1.6 kmh 30.42 in1030.1 mb 0.00 in0.0 mm 0.00 in0.0 mm 0.00 in0.0 mm
02:15 PM 35.0°F1.7°C 20.9°F-6.2°C 56% Calm Calm 1.0 mph1.6 kmh 30.42 in1030.1 mb 0.00 in0.0 mm 0.00 in0.0 mm 0.00 in0.0 mm
02:20 PM 35.6°F2.0°C 20.6°F-6.3°C 54% Calm Calm -- 30.42 in1030.1 mb 0.00 in0.0 mm 0.00 in0.0 mm 0.00 in0.0 mm
02:25 PM 36.0°F2.2°C 21.0°F-6.1°C 54% Calm Calm 3.0 mph4.8 kmh 30.42 in1030.1 mb 0.00 in0.0 mm 0.00 in0.0 mm 0.00 in0.0 mm
02:30 PM 36.4°F2.4°C 20.9°F-6.2°C 53% Calm Calm 2.0 mph3.2 kmh 30.42 in1030.1 mb 0.00 in0.0 mm 0.00 in0.0 mm 0.00 in0.0 mm
02:34 PM 36.3°F2.4°C 20.8°F-6.2°C 53% 3.0 mph SW4.8 kmh SW 4.0 mph6.4 kmh 30.42 in1030.1 mb 0.00 in0.0 mm 0.00 in0.0 mm 0.00 in0.0 mm
02:40 PM 35.8°F2.1°C 20.4°F-6.4°C 53% Calm Calm 2.0 mph3.2 kmh 30.42 in1030.1 mb 0.00 in0.0 mm 0.00 in0.0 mm 0.00 in0.0 mm
02:45 PM 35.7°F2.1°C 20.7°F-6.3°C 54% Calm Calm -- 30.42 in1030.1 mb 0.00 in0.0 mm 0.00 in0.0 mm 0.00 in0.0 mm
02:50 PM 35.8°F2.1°C 20.4°F-6.4°C 53% Calm Calm -- 30.41 in1029.8 mb 0.00 in0.0 mm 0.00 in0.0 mm 0.00 in0.0 mm
02:55 PM 35.7°F2.1°C 19.8°F-6.8°C 52% 2.0 mph NNW3.2 kmh NNW 5.0 mph8.0 kmh 30.41 in1029.8 mb 0.00 in0.0 mm 0.00 in0.0 mm 0.00 in0.0 mm
02:59 PM 35.3°F1.8°C 19.5°F-6.9°C 52% 2.0 mph NNW3.2 kmh NNW 3.0 mph4.8 kmh 30.41 in1029.8 mb 0.00 in0.0 mm 0.00 in0.0 mm 0.00 in0.0 mm
03:05 PM 35.2°F1.8°C 19.8°F-6.8°C 53% Calm Calm 2.0 mph3.2 kmh 30.40 in1029.5 mb 0.00 in0.0 mm 0.00 in0.0 mm 0.00 in0.0 mm
03:10 PM 35.3°F1.8°C 19.9°F-6.7°C 53% Calm Calm 1.0 mph1.6 kmh 30.40 in1029.5 mb 0.00 in0.0 mm 0.00 in0.0 mm 0.00 in0.0 mm
03:15 PM 35.8°F2.1°C 19.9°F-6.7°C 52% Calm Calm 3.0 mph4.8 kmh 30.39 in1029.1 mb 0.00 in0.0 mm 0.00 in0.0 mm 0.00 in0.0 mm
03:19 PM 36.1°F2.3°C 20.2°F-6.6°C 52% Calm Calm -- 30.39 in1029.1 mb 0.00 in0.0 mm 0.00 in0.0 mm 0.00 in0.0 mm
03:25 PM 36.1°F2.3°C 19.3°F-7.1°C 50% 2.0 mph NNW3.2 kmh NNW 4.0 mph6.4 kmh 30.39 in1029.1 mb 0.00 in0.0 mm 0.00 in0.0 mm 0.00 in0.0 mm
03:30 PM 36.0°F2.2°C 19.6°F-6.9°C 51% 1.0 mph NNW1.6 kmh NNW 2.0 mph3.2 kmh 30.39 in1029.1 mb 0.00 in0.0 mm 0.00 in0.0 mm 0.00 in0.0 mm
03:35 PM 36.1°F2.3°C 19.3°F-7.1°C 50% Calm Calm 2.0 mph3.2 kmh 30.38 in1028.8 mb 0.00 in0.0 mm 0.00 in0.0 mm 0.00 in0.0 mm
03:40 PM 36.0°F2.2°C 19.6°F-6.9°C 51% Calm Calm -- 30.38 in1028.8 mb 0.00 in0.0 mm 0.00 in0.0 mm 0.00 in0.0 mm
03:45 PM 36.2°F2.3°C 19.4°F-7.0°C 50% Calm Calm 2.0 mph3.2 kmh 30.38 in1028.8 mb 0.00 in0.0 mm 0.00 in0.0 mm 0.00 in0.0 mm
03:50 PM 36.4°F2.4°C 20.5°F-6.4°C 52% Calm Calm -- 30.38 in1028.8 mb 0.00 in0.0 mm 0.00 in0.0 mm 0.00 in0.0 mm
03:55 PM 36.8°F2.7°C 20.8°F-6.2°C 52% 3.0 mph WNW4.8 kmh WNW 3.0 mph4.8 kmh 30.38 in1028.8 mb 0.00 in0.0 mm 0.00 in0.0 mm 0.00 in0.0 mm
04:00 PM 36.7°F2.6°C 20.3°F-6.5°C 51% 1.0 mph SW1.6 kmh SW 2.0 mph3.2 kmh 30.37 in1028.4 mb 0.00 in0.0 mm 0.00 in0.0 mm 0.00 in0.0 mm
04:05 PM 36.7°F2.6°C 19.8°F-6.8°C 50% 2.0 mph NW3.2 kmh NW 3.0 mph4.8 kmh 30.37 in1028.4 mb 0.00 in0.0 mm 0.00 in0.0 mm 0.00 in0.0 mm
04:10 PM 36.7°F2.6°C 20.8°F-6.2°C 52% Calm Calm -- 30.37 in1028.4 mb 0.00 in0.0 mm 0.00 in0.0 mm 0.00 in0.0 mm
04:15 PM 37.0°F2.8°C 20.6°F-6.3°C 51% 3.0 mph SW4.8 kmh SW 5.0 mph8.0 kmh 30.37 in1028.4 mb 0.00 in0.0 mm 0.00 in0.0 mm 0.00 in0.0 mm
04:20 PM 36.4°F2.4°C 20.9°F-6.2°C 53% 4.0 mph WSW6.4 kmh WSW 7.0 mph11.3 kmh 30.37 in1028.4 mb 0.00 in0.0 mm 0.00 in0.0 mm 0.00 in0.0 mm
04:24 PM 36.3°F2.4°C 21.3°F-5.9°C 54% 4.0 mph WSW6.4 kmh WSW 4.0 mph6.4 kmh 30.37 in1028.4 mb 0.00 in0.0 mm 0.00 in0.0 mm 0.00 in0.0 mm
04:30 PM 36.2°F2.3°C 20.7°F-6.3°C 53% 3.0 mph SW4.8 kmh SW 6.0 mph9.7 kmh 30.37 in1028.4 mb 0.00 in0.0 mm 0.00 in0.0 mm 0.00 in0.0 mm
04:35 PM 36.2°F2.3°C 20.7°F-6.3°C 53% Calm Calm 3.0 mph4.8 kmh 30.37 in1028.4 mb 0.00 in0.0 mm 0.00 in0.0 mm 0.00 in0.0 mm
04:40 PM 36.3°F2.4°C 20.8°F-6.2°C 53% 1.0 mph WNW1.6 kmh WNW 3.0 mph4.8 kmh 30.37 in1028.4 mb 0.00 in0.0 mm 0.00 in0.0 mm 0.00 in0.0 mm
04:45 PM 36.2°F2.3°C 20.3°F-6.5°C 52% Calm Calm -- 30.37 in1028.4 mb 0.00 in0.0 mm 0.00 in0.0 mm 0.00 in0.0 mm
04:50 PM 36.4°F2.4°C 20.9°F-6.2°C 53% Calm Calm -- 30.37 in1028.4 mb 0.00 in0.0 mm 0.00 in0.0 mm 0.00 in0.0 mm
04:55 PM 36.4°F2.4°C 20.5°F-6.4°C 52% Calm Calm 2.0 mph3.2 kmh 30.37 in1028.4 mb 0.00 in0.0 mm 0.00 in0.0 mm 0.00 in0.0 mm
05:00 PM 36.4°F2.4°C 20.5°F-6.4°C 52% Calm Calm -- 30.36 in1028.1 mb 0.00 in0.0 mm 0.00 in0.0 mm 0.00 in0.0 mm
05:05 PM 36.2°F2.3°C 20.7°F-6.3°C 53% 2.0 mph SW3.2 kmh SW 4.0 mph6.4 kmh 30.36 in1028.1 mb 0.00 in0.0 mm 0.00 in0.0 mm 0.00 in0.0 mm
05:10 PM 36.1°F2.3°C 20.6°F-6.3°C 53% Calm Calm -- 30.36 in1028.1 mb 0.00 in0.0 mm 0.00 in0.0 mm 0.00 in0.0 mm
05:14 PM 36.3°F2.4°C 20.8°F-6.2°C 53% 1.0 mph SW1.6 kmh SW 3.0 mph4.8 kmh 30.36 in1028.1 mb 0.00 in0.0 mm 0.00 in0.0 mm 0.00 in0.0 mm
05:20 PM 36.4°F2.4°C 20.9°F-6.2°C 53% Calm Calm -- 30.36 in1028.1 mb 0.00 in0.0 mm 0.00 in0.0 mm 0.00 in0.0 mm
05:25 PM 36.4°F2.4°C 20.5°F-6.4°C 52% Calm Calm -- 30.36 in1028.1 mb 0.00 in0.0 mm 0.00 in0.0 mm 0.00 in0.0 mm
05:29 PM 36.4°F2.4°C 20.5°F-6.4°C 52% Calm Calm -- 30.36 in1028.1 mb 0.00 in0.0 mm 0.00 in0.0 mm 0.00 in0.0 mm
05:35 PM 36.5°F2.5°C 20.6°F-6.3°C 52% Calm Calm -- 30.36 in1028.1 mb 0.00 in0.0 mm 0.00 in0.0 mm 0.00 in0.0 mm
05:40 PM 36.5°F2.5°C 20.6°F-6.3°C 52% Calm Calm -- 30.36 in1028.1 mb 0.00 in0.0 mm 0.00 in0.0 mm 0.00 in0.0 mm
05:45 PM 36.4°F2.4°C 20.5°F-6.4°C 52% Calm Calm -- 30.35 in1027.8 mb 0.00 in0.0 mm 0.00 in0.0 mm 0.00 in0.0 mm
05:50 PM 36.4°F2.4°C 20.9°F-6.2°C 53% Calm Calm -- 30.35 in1027.8 mb 0.00 in0.0 mm 0.00 in0.0 mm 0.00 in0.0 mm
05:55 PM 36.2°F2.3°C 20.7°F-6.3°C 53% Calm Calm 3.0 mph4.8 kmh 30.36 in1028.1 mb 0.00 in0.0 mm 0.00 in0.0 mm 0.00 in0.0 mm
06:00 PM 36.2°F2.3°C 20.7°F-6.3°C 53% Calm Calm 1.0 mph1.6 kmh 30.35 in1027.8 mb 0.00 in0.0 mm 0.00 in0.0 mm 0.00 in0.0 mm
06:05 PM 36.3°F2.4°C 21.3°F-5.9°C 54% Calm Calm -- 30.35 in1027.8 mb 0.00 in0.0 mm 0.00 in0.0 mm 0.00 in0.0 mm
06:10 PM 36.4°F2.4°C 21.8°F-5.7°C 55% Calm Calm -- 30.35 in1027.8 mb 0.00 in0.0 mm 0.00 in0.0 mm 0.00 in0.0 mm
06:15 PM 36.3°F2.4°C 21.7°F-5.7°C 55% Calm Calm -- 30.35 in1027.8 mb 0.00 in0.0 mm 0.00 in0.0 mm 0.00 in0.0 mm
06:20 PM 36.2°F2.3°C 21.6°F-5.8°C 55% Calm Calm -- 30.35 in1027.8 mb 0.00 in0.0 mm 0.00 in0.0 mm 0.00 in0.0 mm
06:24 PM 36.1°F2.3°C 21.9°F-5.6°C 56% Calm Calm -- 30.35 in1027.8 mb 0.00 in0.0 mm 0.00 in0.0 mm 0.00 in0.0 mm
06:30 PM 35.8°F2.1°C 22.1°F-5.5°C 57% Calm Calm -- 30.35 in1027.8 mb 0.00 in0.0 mm 0.00 in0.0 mm 0.00 in0.0 mm
06:35 PM 35.6°F2.0°C 21.9°F-5.6°C 57% Calm Calm -- 30.35 in1027.8 mb 0.00 in0.0 mm 0.00 in0.0 mm 0.00 in0.0 mm
06:40 PM 35.6°F2.0°C 21.9°F-5.6°C 57% Calm Calm -- 30.34 in1027.4 mb 0.00 in0.0 mm 0.00 in0.0 mm 0.00 in0.0 mm
06:45 PM 35.6°F2.0°C 22.3°F-5.4°C 58% Calm Calm -- 30.34 in1027.4 mb 0.00 in0.0 mm 0.00 in0.0 mm 0.00 in0.0 mm
06:49 PM 35.3°F1.8°C 22.4°F-5.3°C 59% Calm Calm 3.0 mph4.8 kmh 30.34 in1027.4 mb 0.00 in0.0 mm 0.00 in0.0 mm 0.00 in0.0 mm
06:54 PM 35.1°F1.7°C 22.2°F-5.4°C 59% Calm Calm -- 30.34 in1027.4 mb 0.00 in0.0 mm 0.00 in0.0 mm 0.00 in0.0 mm
07:00 PM 35.0°F1.7°C 22.9°F-5.1°C 61% Calm Calm -- 30.34 in1027.4 mb 0.00 in0.0 mm 0.00 in0.0 mm 0.00 in0.0 mm
07:05 PM 34.9°F1.6°C 23.2°F-4.9°C 62% 1.0 mph SSW1.6 kmh SSW 3.0 mph4.8 kmh 30.34 in1027.4 mb 0.00 in0.0 mm 0.00 in0.0 mm 0.00 in0.0 mm
07:09 PM 34.8°F1.6°C 23.1°F-4.9°C 62% 2.0 mph SW3.2 kmh SW 4.0 mph6.4 kmh 30.34 in1027.4 mb 0.00 in0.0 mm 0.00 in0.0 mm 0.00 in0.0 mm
07:15 PM 34.5°F1.4°C 24.3°F-4.3°C 66% 3.0 mph SW4.8 kmh SW 6.0 mph9.7 kmh 30.34 in1027.4 mb 0.00 in0.0 mm 0.00 in0.0 mm 0.00 in0.0 mm
07:20 PM 33.9°F1.1°C 25.2°F-3.8°C 70% 4.0 mph SW6.4 kmh SW 5.0 mph8.0 kmh 30.34 in1027.4 mb 0.00 in0.0 mm 0.00 in0.0 mm 0.00 in0.0 mm
07:25 PM 33.6°F0.9°C 25.6°F-3.6°C 72% 5.0 mph WSW8.0 kmh WSW 8.0 mph12.9 kmh 30.35 in1027.8 mb 0.00 in0.0 mm 0.00 in0.0 mm 0.00 in0.0 mm
07:30 PM 33.3°F0.7°C 25.9°F-3.4°C 74% 3.0 mph SSW4.8 kmh SSW 4.0 mph6.4 kmh 30.35 in1027.8 mb 0.00 in0.0 mm 0.00 in0.0 mm 0.00 in0.0 mm
07:35 PM 33.0°F0.6°C 26.3°F-3.2°C 76% 1.0 mph SW1.6 kmh SW 5.0 mph8.0 kmh 30.35 in1027.8 mb 0.00 in0.0 mm 0.00 in0.0 mm 0.00 in0.0 mm
07:40 PM 32.7°F0.4°C 26.6°F-3.0°C 78% 1.0 mph SW1.6 kmh SW 5.0 mph8.0 kmh 30.35 in1027.8 mb 0.00 in0.0 mm 0.00 in0.0 mm 0.00 in0.0 mm
07:44 PM 32.4°F0.2°C 26.6°F-3.0°C 79% 3.0 mph S4.8 kmh S 6.0 mph9.7 kmh 30.35 in1027.8 mb 0.00 in0.0 mm 0.00 in0.0 mm 0.00 in0.0 mm
07:49 PM 32.3°F0.2°C 26.5°F-3.1°C 79% 1.0 mph SW1.6 kmh SW 4.0 mph6.4 kmh 30.35 in1027.8 mb 0.00 in0.0 mm 0.00 in0.0 mm 0.00 in0.0 mm
07:55 PM 32.3°F0.2°C 26.8°F-2.9°C 80% 3.0 mph SW4.8 kmh SW 6.0 mph9.7 kmh 30.35 in1027.8 mb 0.00 in0.0 mm 0.00 in0.0 mm 0.00 in0.0 mm
08:00 PM 32.2°F0.1°C 26.7°F-2.9°C 80% 3.0 mph SW4.8 kmh SW 4.0 mph6.4 kmh 30.35 in1027.8 mb 0.00 in0.0 mm 0.00 in0.0 mm 0.00 in0.0 mm
08:05 PM 32.1°F0.1°C 26.6°F-3.0°C 80% Calm Calm 3.0 mph4.8 kmh 30.34 in1027.4 mb 0.00 in0.0 mm 0.00 in0.0 mm 0.00 in0.0 mm
08:10 PM 32.0°F0.0°C 26.8°F-2.9°C 81% 1.0 mph SW1.6 kmh SW 4.0 mph6.4 kmh 30.34 in1027.4 mb 0.00 in0.0 mm 0.00 in0.0 mm 0.00 in0.0 mm
08:15 PM 32.0°F0.0°C 26.8°F-2.9°C 81% Calm Calm 3.0 mph4.8 kmh 30.35 in1027.8 mb 0.00 in0.0 mm 0.00 in0.0 mm 0.00 in0.0 mm
08:20 PM 31.9°F-0.1°C 26.7°F-2.9°C 81% 2.0 mph SW3.2 kmh SW 3.0 mph4.8 kmh 30.35 in1027.8 mb 0.00 in0.0 mm 0.00 in0.0 mm 0.00 in0.0 mm
08:25 PM 32.0°F0.0°C 27.1°F-2.7°C 82% Calm Calm 3.0 mph4.8 kmh 30.35 in1027.8 mb 0.00 in0.0 mm 0.00 in0.0 mm 0.00 in0.0 mm
08:29 PM 32.0°F0.0°C 27.1°F-2.7°C 82% 1.0 mph S1.6 kmh S 3.0 mph4.8 kmh 30.35 in1027.8 mb 0.00 in0.0 mm 0.00 in0.0 mm 0.00 in0.0 mm
08:35 PM 31.9°F-0.1°C 27.3°F-2.6°C 83% Calm Calm 4.0 mph6.4 kmh 30.35 in1027.8 mb 0.00 in0.0 mm 0.00 in0.0 mm 0.00 in0.0 mm
08:40 PM 31.9°F-0.1°C 27.3°F-2.6°C 83% 1.0 mph SW1.6 kmh SW 3.0 mph4.8 kmh 30.35 in1027.8 mb 0.00 in0.0 mm 0.00 in0.0 mm 0.00 in0.0 mm
08:45 PM 31.9°F-0.1°C 27.3°F-2.6°C 83% Calm Calm 2.0 mph3.2 kmh 30.35 in1027.8 mb 0.00 in0.0 mm 0.00 in0.0 mm 0.00 in0.0 mm
08:50 PM 31.8°F-0.1°C 27.2°F-2.7°C 83% 1.0 mph SW1.6 kmh SW 2.0 mph3.2 kmh 30.35 in1027.8 mb 0.00 in0.0 mm 0.00 in0.0 mm 0.00 in0.0 mm
08:55 PM 31.8°F-0.1°C 27.2°F-2.7°C 83% Calm Calm 2.0 mph3.2 kmh 30.35 in1027.8 mb 0.00 in0.0 mm 0.00 in0.0 mm 0.00 in0.0 mm
09:00 PM 31.8°F-0.1°C 27.5°F-2.5°C 84% Calm Calm 2.0 mph3.2 kmh 30.35 in1027.8 mb 0.00 in0.0 mm 0.00 in0.0 mm 0.00 in0.0 mm
09:05 PM 31.8°F-0.1°C 27.5°F-2.5°C 84% Calm Calm 2.0 mph3.2 kmh 30.35 in1027.8 mb 0.00 in0.0 mm 0.00 in0.0 mm 0.00 in0.0 mm
09:10 PM 31.8°F-0.1°C 27.5°F-2.5°C 84% Calm Calm 2.0 mph3.2 kmh 30.34 in1027.4 mb 0.00 in0.0 mm 0.00 in0.0 mm 0.00 in0.0 mm
09:14 PM 31.8°F-0.1°C 27.5°F-2.5°C 84% Calm Calm 1.0 mph1.6 kmh 30.34 in1027.4 mb 0.00 in0.0 mm 0.00 in0.0 mm 0.00 in0.0 mm
09:20 PM 31.8°F-0.1°C 27.8°F-2.3°C 85% 2.0 mph S3.2 kmh S 3.0 mph4.8 kmh 30.34 in1027.4 mb 0.00 in0.0 mm 0.00 in0.0 mm 0.00 in0.0 mm
09:24 PM 31.7°F-0.2°C 27.7°F-2.4°C 85% 2.0 mph S3.2 kmh S 3.0 mph4.8 kmh 30.34 in1027.4 mb 0.00 in0.0 mm 0.00 in0.0 mm 0.00 in0.0 mm
09:30 PM 31.7°F-0.2°C 27.7°F-2.4°C 85% Calm Calm 3.0 mph4.8 kmh 30.34 in1027.4 mb 0.00 in0.0 mm 0.00 in0.0 mm 0.00 in0.0 mm
09:34 PM 31.7°F-0.2°C 28.0°F-2.2°C 86% 1.0 mph S1.6 kmh S 3.0 mph4.8 kmh 30.34 in1027.4 mb 0.00 in0.0 mm 0.00 in0.0 mm 0.00 in0.0 mm
09:40 PM 31.6°F-0.2°C 27.9°F-2.3°C 86% Calm Calm 3.0 mph4.8 kmh 30.33 in1027.1 mb 0.00 in0.0 mm 0.00 in0.0 mm 0.00 in0.0 mm
09:45 PM 31.6°F-0.2°C 27.9°F-2.3°C 86% 2.0 mph S3.2 kmh S 2.0 mph3.2 kmh 30.33 in1027.1 mb 0.00 in0.0 mm 0.00 in0.0 mm 0.00 in0.0 mm
09:50 PM 31.5°F-0.3°C 27.8°F-2.3°C 86% Calm Calm -- 30.33 in1027.1 mb 0.00 in0.0 mm 0.00 in0.0 mm 0.00 in0.0 mm
09:55 PM 31.5°F-0.3°C 27.8°F-2.3°C 86% 1.0 mph S1.6 kmh S 2.0 mph3.2 kmh 30.33 in1027.1 mb 0.00 in0.0 mm 0.00 in0.0 mm 0.00 in0.0 mm
10:00 PM 31.5°F-0.3°C 28.1°F-2.2°C 87% Calm Calm 4.0 mph6.4 kmh 30.33 in1027.1 mb 0.00 in0.0 mm 0.00 in0.0 mm 0.00 in0.0 mm
10:05 PM 31.5°F-0.3°C 28.1°F-2.2°C 87% 3.0 mph S4.8 kmh S 4.0 mph6.4 kmh 30.33 in1027.1 mb 0.00 in0.0 mm 0.00 in0.0 mm 0.00 in0.0 mm
10:10 PM 31.4°F-0.3°C 28.0°F-2.2°C 87% 1.0 mph SSW1.6 kmh SSW 5.0 mph8.0 kmh 30.33 in1027.1 mb 0.00 in0.0 mm 0.00 in0.0 mm 0.00 in0.0 mm
10:15 PM 31.3°F-0.4°C 27.9°F-2.3°C 87% Calm Calm 7.0 mph11.3 kmh 30.32 in1026.8 mb 0.00 in0.0 mm 0.00 in0.0 mm 0.00 in0.0 mm
10:20 PM 31.1°F-0.5°C 27.7°F-2.4°C 87% 4.0 mph S6.4 kmh S 6.0 mph9.7 kmh 30.33 in1027.1 mb 0.00 in0.0 mm 0.00 in0.0 mm 0.00 in0.0 mm
10:24 PM 30.9°F-0.6°C 27.8°F-2.3°C 88% 1.0 mph S1.6 kmh S 5.0 mph8.0 kmh 30.33 in1027.1 mb 0.00 in0.0 mm 0.00 in0.0 mm 0.00 in0.0 mm
10:30 PM 30.8°F-0.7°C 27.7°F-2.4°C 88% Calm Calm 1.0 mph1.6 kmh 30.33 in1027.1 mb 0.00 in0.0 mm 0.00 in0.0 mm 0.00 in0.0 mm
10:34 PM 30.8°F-0.7°C 27.7°F-2.4°C 88% 2.0 mph S3.2 kmh S 4.0 mph6.4 kmh 30.33 in1027.1 mb 0.00 in0.0 mm 0.00 in0.0 mm 0.00 in0.0 mm
10:40 PM 30.7°F-0.7°C 27.6°F-2.4°C 88% 1.0 mph S1.6 kmh S 2.0 mph3.2 kmh 30.33 in1027.1 mb 0.00 in0.0 mm 0.00 in0.0 mm 0.00 in0.0 mm
10:45 PM 30.7°F-0.7°C 27.6°F-2.4°C 88% 2.0 mph S3.2 kmh S 3.0 mph4.8 kmh 30.33 in1027.1 mb 0.00 in0.0 mm 0.00 in0.0 mm 0.00 in0.0 mm
10:50 PM 30.8°F-0.7°C 27.7°F-2.4°C 88% 3.0 mph SSW4.8 kmh SSW 5.0 mph8.0 kmh 30.33 in1027.1 mb 0.00 in0.0 mm 0.00 in0.0 mm 0.00 in0.0 mm
10:55 PM 30.7°F-0.7°C 27.6°F-2.4°C 88% 1.0 mph S1.6 kmh S 5.0 mph8.0 kmh 30.33 in1027.1 mb 0.00 in0.0 mm 0.00 in0.0 mm 0.00 in0.0 mm
11:00 PM 30.7°F-0.7°C 27.6°F-2.4°C 88% 1.0 mph SSE1.6 kmh SSE 6.0 mph9.7 kmh 30.33 in1027.1 mb 0.00 in0.0 mm 0.00 in0.0 mm 0.00 in0.0 mm
11:05 PM 30.7°F-0.7°C 27.6°F-2.4°C 88% 1.0 mph S1.6 kmh S 2.0 mph3.2 kmh 30.33 in1027.1 mb 0.00 in0.0 mm 0.00 in0.0 mm 0.00 in0.0 mm
11:10 PM 30.7°F-0.7°C 27.6°F-2.4°C 88% 2.0 mph S3.2 kmh S 5.0 mph8.0 kmh 30.33 in1027.1 mb 0.00 in0.0 mm 0.00 in0.0 mm 0.00 in0.0 mm
11:15 PM 30.6°F-0.8°C 27.5°F-2.5°C 88% 1.0 mph S1.6 kmh S 5.0 mph8.0 kmh 30.33 in1027.1 mb 0.00 in0.0 mm 0.00 in0.0 mm 0.00 in0.0 mm
11:20 PM 30.6°F-0.8°C 27.5°F-2.5°C 88% 4.0 mph SSE6.4 kmh SSE 5.0 mph8.0 kmh 30.33 in1027.1 mb 0.00 in0.0 mm 0.00 in0.0 mm 0.00 in0.0 mm
11:25 PM 30.6°F-0.8°C 27.5°F-2.5°C 88% 4.0 mph S6.4 kmh S 4.0 mph6.4 kmh 30.33 in1027.1 mb 0.00 in0.0 mm 0.00 in0.0 mm 0.00 in0.0 mm
11:30 PM 30.6°F-0.8°C 27.5°F-2.5°C 88% 3.0 mph SSE4.8 kmh SSE 6.0 mph9.7 kmh 30.33 in1027.1 mb 0.00 in0.0 mm 0.00 in0.0 mm 0.00 in0.0 mm
11:35 PM 30.5°F-0.8°C 27.4°F-2.6°C 88% 1.0 mph SSE1.6 kmh SSE 3.0 mph4.8 kmh 30.32 in1026.8 mb 0.00 in0.0 mm 0.00 in0.0 mm 0.00 in0.0 mm
11:40 PM 30.5°F-0.8°C 27.1°F-2.7°C 87% 3.0 mph SSE4.8 kmh SSE 6.0 mph9.7 kmh 30.32 in1026.8 mb 0.00 in0.0 mm 0.00 in0.0 mm 0.00 in0.0 mm
11:45 PM 30.5°F-0.8°C 27.1°F-2.7°C 87% 1.0 mph S1.6 kmh S 5.0 mph8.0 kmh 30.32 in1026.8 mb 0.00 in0.0 mm 0.00 in0.0 mm 0.00 in0.0 mm
11:50 PM 30.5°F-0.8°C 27.1°F-2.7°C 87% 1.0 mph S1.6 kmh S 4.0 mph6.4 kmh 30.32 in1026.8 mb 0.00 in0.0 mm 0.00 in0.0 mm 0.00 in0.0 mm
11:55 PM 30.5°F-0.8°C 27.1°F-2.7°C 87% 3.0 mph S4.8 kmh S 3.0 mph4.8 kmh 30.32 in1026.8 mb 0.00 in0.0 mm 0.00 in0.0 mm 0.00 in0.0 mm